createdAt,value
2018-10-09T00:02:06.909Z,11.53
2018-10-09T00:05:12.442Z,11.50
2018-10-09T00:08:17.897Z,11.52
2018-10-09T00:11:25.515Z,11.54
2018-10-09T00:14:31.006Z,11.53
2018-10-09T00:17:37.470Z,11.51
2018-10-09T00:20:42.882Z,11.41
2018-10-09T00:23:48.389Z,11.33
2018-10-09T00:26:53.785Z,11.32
2018-10-09T00:29:59.223Z,11.31
2018-10-09T00:33:04.726Z,11.10
2018-10-09T00:36:10.141Z,11.11
2018-10-09T00:39:16.145Z,11.10
2018-10-09T00:42:21.583Z,11.03
2018-10-09T00:45:27.088Z,10.90
2018-10-09T00:48:32.839Z,10.92
2018-10-09T00:51:38.270Z,11.01
2018-10-09T00:54:45.870Z,11.07
2018-10-09T00:57:51.281Z,11.22
2018-10-09T01:00:56.714Z,11.30
2018-10-09T01:04:02.509Z,11.32
2018-10-09T01:07:08.172Z,11.38
2018-10-09T01:10:13.594Z,11.36
2018-10-09T01:13:19.014Z,11.44
2018-10-09T01:16:24.433Z,11.51
2018-10-09T01:19:30.002Z,11.52
2018-10-09T01:22:35.486Z,11.55
2018-10-09T01:25:40.906Z,11.60
2018-10-09T01:28:46.297Z,11.62
2018-10-09T01:31:52.470Z,11.66
2018-10-09T01:34:57.970Z,11.70
2018-10-09T01:38:04.246Z,11.72
2018-10-09T01:41:09.682Z,11.74
2018-10-09T01:44:15.125Z,11.78
2018-10-09T01:47:20.545Z,11.77
2018-10-09T01:50:25.954Z,11.77
2018-10-09T01:53:31.373Z,11.78
2018-10-09T01:56:37.254Z,11.79
2018-10-09T01:59:42.651Z,11.80
2018-10-09T02:02:48.161Z,11.84
2018-10-09T02:05:53.898Z,11.82
2018-10-09T02:08:59.353Z,11.79
2018-10-09T02:12:04.793Z,11.78
2018-10-09T02:15:10.274Z,11.73
2018-10-09T02:18:15.768Z,11.77
2018-10-09T02:21:21.216Z,11.76
2018-10-09T02:24:26.721Z,11.76
2018-10-09T02:27:32.141Z,11.73
2018-10-09T02:30:37.529Z,11.66
2018-10-09T02:33:43.226Z,11.65
2018-10-09T02:36:49.043Z,11.66
2018-10-09T02:39:54.458Z,11.65
2018-10-09T02:42:59.933Z,11.63
2018-10-09T02:46:05.361Z,11.61
2018-10-09T02:49:10.802Z,11.45
2018-10-09T02:52:16.199Z,11.43
2018-10-09T02:55:21.722Z,11.46
2018-10-09T02:58:27.145Z,11.44
2018-10-09T03:01:32.537Z,11.41
2018-10-09T03:04:38.070Z,11.38
2018-10-09T03:07:43.477Z,11.37
2018-10-09T03:10:48.889Z,11.36
2018-10-09T03:13:54.408Z,11.30
2018-10-09T03:16:59.795Z,11.27
2018-10-09T03:20:05.573Z,11.24
2018-10-09T03:23:11.038Z,11.15
2018-10-09T03:26:17.210Z,11.14
2018-10-09T03:29:22.641Z,11.10
2018-10-09T03:32:28.025Z,11.03
2018-10-09T03:35:33.829Z,10.94
2018-10-09T03:38:39.279Z,10.91
2018-10-09T03:41:44.693Z,10.90
2018-10-09T03:44:50.243Z,10.87
2018-10-09T03:47:55.649Z,10.84
2018-10-09T03:51:01.576Z,10.78
2018-10-09T03:54:07.528Z,10.76
2018-10-09T03:57:13.229Z,10.74
2018-10-09T04:00:18.673Z,10.78
2018-10-09T04:03:24.128Z,10.81
2018-10-09T04:06:29.557Z,10.72
2018-10-09T04:09:35.012Z,10.78
2018-10-09T04:12:40.769Z,10.76
2018-10-09T04:15:46.289Z,10.60
2018-10-09T04:18:51.725Z,10.67
2018-10-09T04:21:57.153Z,10.63
2018-10-09T04:25:02.585Z,10.70
2018-10-09T04:28:08.170Z,10.70
2018-10-09T04:31:13.561Z,10.71
2018-10-09T04:34:19.033Z,10.70
2018-10-09T04:37:24.454Z,10.53
2018-10-09T04:40:29.837Z,10.42
2018-10-09T04:43:35.392Z,10.16
2018-10-09T04:46:41.145Z,10.23
2018-10-09T04:49:46.562Z,10.32
2018-10-09T04:52:52.257Z,10.39
2018-10-09T04:55:57.817Z,10.33
2018-10-09T04:59:03.233Z,10.23
2018-10-09T05:02:08.701Z,10.29
2018-10-09T05:05:14.160Z,10.34
2018-10-09T05:08:19.581Z,10.26
2018-10-09T05:11:24.976Z,10.23
2018-10-09T05:14:30.538Z,10.31
2018-10-09T05:17:37.131Z,10.25
2018-10-09T05:20:42.545Z,10.13
2018-10-09T05:23:48.732Z,10.18
2018-10-09T05:26:54.133Z,10.14
2018-10-09T05:29:59.834Z,10.19
2018-10-09T05:33:05.333Z,10.25
2018-10-09T05:36:10.756Z,10.16
2018-10-09T05:39:16.181Z,10.18
2018-10-09T05:42:21.626Z,10.18
2018-10-09T05:45:27.056Z,10.25
2018-10-09T05:48:32.597Z,10.20
2018-10-09T05:51:38.018Z,10.16
2018-10-09T05:54:43.582Z,10.05
2018-10-09T05:57:49.023Z,10.23
2018-10-09T06:00:54.646Z,10.20
2018-10-09T06:04:00.117Z,10.23
2018-10-09T06:07:05.886Z,10.34
2018-10-09T06:10:11.677Z,10.34
2018-10-09T06:13:17.174Z,10.32
2018-10-09T06:16:22.617Z,10.32
2018-10-09T06:19:28.013Z,10.39
2018-10-09T06:22:33.533Z,10.48
2018-10-09T06:25:38.990Z,10.42
2018-10-09T06:28:44.406Z,10.56
2018-10-09T06:31:49.848Z,10.64
2018-10-09T06:34:56.058Z,10.65
2018-10-09T06:38:01.710Z,10.60
2018-10-09T06:41:07.253Z,10.67
2018-10-09T06:44:13.202Z,10.76
2018-10-09T06:47:18.661Z,10.59
2018-10-09T06:50:24.794Z,10.52
2018-10-09T06:53:30.544Z,10.49
2018-10-09T06:56:36.200Z,10.66
2018-10-09T06:59:42.167Z,10.79
2018-10-09T07:02:47.670Z,10.93
2018-10-09T07:05:53.866Z,11.02
2018-10-09T07:08:59.932Z,11.06
2018-10-09T07:12:05.451Z,11.21
2018-10-09T07:15:13.629Z,11.32
2018-10-09T07:18:30.563Z,11.38
2018-10-09T07:21:36.016Z,11.53
2018-10-09T07:24:41.575Z,11.63
2018-10-09T07:27:47.154Z,11.71
2018-10-09T07:30:52.770Z,11.69
2018-10-09T07:33:58.226Z,11.87
2018-10-09T07:37:03.662Z,12.02
2018-10-09T07:40:09.090Z,12.09
2018-10-09T07:43:14.523Z,12.13
2018-10-09T07:46:19.994Z,12.32
2018-10-09T07:49:25.414Z,12.48
2018-10-09T07:52:30.853Z,12.61
2018-10-09T07:55:36.285Z,12.88
2018-10-09T07:58:41.852Z,12.97
2018-10-09T08:01:47.415Z,13.18
2018-10-09T08:04:53.018Z,13.23
2018-10-09T08:07:58.583Z,13.34
2018-10-09T08:11:04.031Z,13.50
2018-10-09T08:14:10.225Z,13.59
2018-10-09T08:17:15.673Z,13.66
2018-10-09T08:20:21.098Z,13.76
2018-10-09T08:23:26.597Z,13.82
2018-10-09T08:26:32.002Z,13.84
2018-10-09T08:29:38.325Z,13.93
2018-10-09T08:32:43.874Z,14.04
2018-10-09T08:35:49.526Z,14.19
2018-10-09T08:38:54.962Z,14.27
2018-10-09T08:42:00.539Z,14.32
2018-10-09T08:45:07.476Z,14.38
2018-10-09T08:48:12.923Z,14.44
2018-10-09T08:51:18.342Z,14.51
2018-10-09T08:54:23.806Z,14.57
2018-10-09T08:57:29.326Z,14.59
2018-10-09T09:00:35.210Z,14.61
2018-10-09T09:03:40.686Z,14.69
2018-10-09T09:06:46.302Z,14.76
2018-10-09T09:09:51.704Z,14.80
2018-10-09T09:12:57.131Z,14.81
2018-10-09T09:16:02.662Z,14.87
2018-10-09T09:19:08.078Z,14.98
2018-10-09T09:22:13.578Z,15.00
2018-10-09T09:25:19.019Z,15.05
2018-10-09T09:28:24.614Z,15.16
2018-10-09T09:31:30.369Z,15.29
2018-10-09T09:34:36.235Z,15.39
2018-10-09T09:37:41.650Z,15.46
2018-10-09T09:40:47.427Z,15.56
2018-10-09T09:43:52.876Z,15.66
2018-10-09T09:46:58.339Z,15.75
2018-10-09T09:50:04.646Z,15.77
2018-10-09T09:53:10.451Z,15.85
2018-10-09T09:56:16.058Z,15.89
2018-10-09T09:59:21.540Z,15.92
2018-10-09T10:02:27.121Z,15.95
2018-10-09T10:05:33.155Z,16.01
2018-10-09T10:08:39.146Z,16.06
2018-10-09T10:11:44.549Z,16.15
2018-10-09T10:14:49.995Z,16.25
2018-10-09T10:17:55.421Z,16.35
2018-10-09T10:21:00.823Z,16.48
2018-10-09T10:24:06.323Z,16.67
2018-10-09T10:27:12.085Z,16.87
2018-10-09T10:30:17.629Z,17.07
2018-10-09T10:33:23.214Z,17.08
2018-10-09T10:36:28.664Z,17.16
2018-10-09T10:39:34.282Z,17.22
2018-10-09T10:42:39.758Z,17.24
2018-10-09T10:45:45.242Z,17.25
2018-10-09T10:49:03.632Z,17.35
2018-10-09T10:52:09.612Z,17.44
2018-10-09T10:55:15.114Z,17.50
2018-10-09T10:58:20.602Z,17.63
2018-10-09T11:01:26.097Z,17.85
2018-10-09T11:04:31.758Z,17.99
2018-10-09T11:07:37.526Z,18.06
2018-10-09T11:10:42.987Z,18.10
2018-10-09T11:13:48.918Z,18.23
2018-10-09T11:16:54.327Z,18.37
2018-10-09T11:19:59.753Z,18.76
2018-10-09T11:23:05.327Z,19.29
2018-10-09T11:26:11.205Z,19.67
2018-10-09T11:29:17.149Z,19.90
2018-10-09T11:32:23.119Z,20.13
2018-10-09T11:35:28.755Z,20.37
2018-10-09T11:38:34.424Z,20.70
2018-10-09T11:41:39.917Z,21.16
2018-10-09T11:44:45.495Z,21.41
2018-10-09T11:47:50.921Z,21.95
2018-10-09T11:50:56.603Z,22.26
2018-10-09T11:54:02.032Z,22.35
2018-10-09T11:57:07.821Z,22.80
2018-10-09T12:00:13.463Z,23.45
2018-10-09T12:03:18.919Z,24.35
2018-10-09T12:06:24.730Z,25.00
2018-10-09T12:09:30.214Z,25.44
2018-10-09T12:12:37.863Z,25.44
2018-10-09T12:15:43.320Z,25.83
2018-10-09T12:18:48.950Z,26.19
2018-10-09T12:21:54.385Z,26.41
2018-10-09T12:24:59.855Z,26.66
2018-10-09T12:28:05.287Z,27.52
2018-10-09T12:31:10.725Z,28.17
2018-10-09T12:34:16.234Z,28.05
2018-10-09T12:37:21.655Z,28.30
2018-10-09T12:40:27.037Z,28.49
2018-10-09T12:43:34.418Z,28.54
2018-10-09T12:46:43.999Z,28.54
2018-10-09T12:49:49.442Z,28.04
2018-10-09T12:52:54.910Z,28.70
2018-10-09T12:56:00.546Z,29.07
2018-10-09T12:59:06.118Z,28.28
2018-10-09T13:02:11.756Z,28.77
2018-10-09T13:05:17.167Z,29.23
2018-10-09T13:08:22.594Z,29.65
2018-10-09T13:11:27.978Z,29.75
2018-10-09T13:14:34.098Z,30.08
2018-10-09T13:17:40.071Z,30.23
2018-10-09T13:20:45.735Z,29.85
2018-10-09T13:23:51.320Z,29.80
2018-10-09T13:26:57.115Z,29.69
2018-10-09T13:30:02.748Z,29.23
2018-10-09T13:33:08.197Z,29.13
2018-10-09T13:36:13.644Z,28.16
2018-10-09T13:39:19.401Z,28.31
2018-10-09T13:42:24.851Z,27.83
2018-10-09T13:45:30.278Z,26.85
2018-10-09T13:48:36.806Z,25.83
2018-10-09T13:51:42.323Z,25.16
2018-10-09T13:54:47.849Z,24.76
2018-10-09T13:57:53.323Z,24.34
2018-10-09T14:00:58.764Z,23.97
2018-10-09T14:04:04.199Z,23.62
2018-10-09T14:07:09.610Z,23.34
2018-10-09T14:10:15.106Z,22.88
2018-10-09T14:13:20.668Z,22.81
2018-10-09T14:16:26.114Z,22.62
2018-10-09T14:19:31.739Z,22.42
2018-10-09T14:22:37.232Z,22.24
2018-10-09T14:25:42.873Z,22.13
2018-10-09T14:28:48.640Z,22.01
2018-10-09T14:31:54.054Z,21.75
2018-10-09T14:34:59.556Z,21.63
2018-10-09T14:38:05.251Z,21.57
2018-10-09T14:41:10.646Z,21.53
2018-10-09T14:44:16.115Z,21.46
2018-10-09T14:47:21.505Z,21.40
2018-10-09T14:50:26.899Z,21.38
2018-10-09T14:53:32.298Z,21.23
2018-10-09T14:56:39.807Z,21.23
2018-10-09T14:59:45.530Z,21.22
2018-10-09T15:02:51.528Z,21.06
2018-10-09T15:05:57.251Z,20.94
2018-10-09T15:09:02.690Z,20.99
2018-10-09T15:12:09.514Z,20.88
2018-10-09T15:15:16.039Z,20.87
2018-10-09T15:18:21.434Z,20.82
2018-10-09T15:21:27.219Z,20.72
2018-10-09T15:24:32.706Z,20.54
2018-10-09T15:27:38.166Z,20.42
2018-10-09T15:30:43.548Z,20.28
2018-10-09T15:33:48.971Z,20.28
2018-10-09T15:36:54.406Z,20.22
2018-10-09T15:39:59.887Z,20.17
2018-10-09T15:43:05.343Z,20.05
2018-10-09T15:46:10.993Z,19.89
2018-10-09T15:49:16.390Z,19.84
2018-10-09T15:52:21.810Z,19.79
2018-10-09T15:55:27.211Z,19.83
2018-10-09T15:58:32.633Z,19.66
2018-10-09T16:01:38.039Z,19.56
2018-10-09T16:04:43.495Z,19.47
2018-10-09T16:07:50.382Z,19.44
2018-10-09T16:10:57.975Z,19.36
2018-10-09T16:14:04.352Z,19.22
2018-10-09T16:17:10.111Z,19.08
2018-10-09T16:20:15.482Z,18.87
2018-10-09T16:23:20.894Z,18.79
2018-10-09T16:26:26.285Z,18.76
2018-10-09T16:29:32.263Z,18.72
2018-10-09T16:32:37.910Z,18.70
2018-10-09T16:35:43.447Z,18.66
2018-10-09T16:38:49.453Z,18.47
2018-10-09T16:41:55.826Z,18.32
2018-10-09T16:45:01.315Z,18.30
2018-10-09T16:48:07.582Z,18.23
2018-10-09T16:51:13.023Z,18.21
2018-10-09T16:54:18.495Z,18.13
2018-10-09T16:57:23.923Z,18.08
2018-10-09T17:00:29.975Z,18.02
2018-10-09T17:03:35.604Z,17.96
2018-10-09T17:06:41.063Z,17.89
2018-10-09T17:09:46.707Z,17.76
2018-10-09T17:12:52.229Z,17.68
2018-10-09T17:15:57.634Z,17.45
2018-10-09T17:19:03.830Z,17.31
2018-10-09T17:22:09.242Z,17.23
2018-10-09T17:25:14.701Z,17.17
2018-10-09T17:28:20.136Z,17.12
2018-10-09T17:31:25.721Z,16.89
2018-10-09T17:34:31.163Z,16.62
2018-10-09T17:37:36.591Z,16.65
2018-10-09T17:40:42.013Z,16.59
2018-10-09T17:43:47.501Z,16.54
2018-10-09T17:46:52.908Z,16.52
2018-10-09T17:49:58.583Z,16.47
2018-10-09T17:53:04.061Z,16.18
2018-10-09T17:56:09.521Z,16.21
2018-10-09T17:59:14.958Z,16.15
2018-10-09T18:02:20.422Z,16.10
2018-10-09T18:05:26.019Z,16.07
2018-10-09T18:08:31.488Z,16.01
2018-10-09T18:11:36.964Z,15.80
2018-10-09T18:14:42.434Z,15.73
2018-10-09T18:17:48.014Z,15.55
2018-10-09T18:20:53.461Z,15.52
2018-10-09T18:23:58.894Z,15.55
2018-10-09T18:27:04.303Z,15.47
2018-10-09T18:30:11.207Z,15.25
2018-10-09T18:33:18.813Z,15.29
2018-10-09T18:36:27.230Z,15.29
2018-10-09T18:39:35.993Z,15.29
2018-10-09T18:42:52.512Z,15.28
2018-10-09T18:46:02.924Z,15.23
2018-10-09T18:49:11.919Z,15.20
2018-10-09T18:52:19.534Z,15.20
2018-10-09T18:55:28.841Z,15.18
2018-10-09T18:58:36.731Z,15.17
2018-10-09T19:01:42.148Z,15.15
2018-10-09T19:04:47.655Z,15.11
2018-10-09T19:07:53.379Z,15.05
2018-10-09T19:10:58.794Z,14.93
2018-10-09T19:14:05.109Z,14.82
2018-10-09T19:17:10.542Z,14.79
2018-10-09T19:20:15.966Z,14.69
2018-10-09T19:23:21.417Z,14.63
2018-10-09T19:26:26.854Z,14.58
2018-10-09T19:29:32.306Z,14.59
2018-10-09T19:32:38.331Z,14.57
2018-10-09T19:35:43.878Z,14.52
2018-10-09T19:38:49.309Z,14.45
2018-10-09T19:41:54.766Z,14.41
2018-10-09T19:45:00.268Z,14.35
2018-10-09T19:48:05.714Z,14.23
2018-10-09T19:51:11.305Z,14.03
2018-10-09T19:54:16.806Z,14.03
2018-10-09T19:57:22.220Z,13.99
2018-10-09T20:00:27.651Z,14.03
2018-10-09T20:03:33.079Z,13.99
2018-10-09T20:06:38.549Z,14.00
2018-10-09T20:09:43.950Z,13.96
2018-10-09T20:12:49.362Z,13.93
2018-10-09T20:15:54.854Z,13.89
2018-10-09T20:19:00.279Z,13.84
2018-10-09T20:22:08.698Z,13.77
2018-10-09T20:25:14.287Z,13.77
2018-10-09T20:28:19.709Z,13.73
2018-10-09T20:31:25.550Z,13.67
2018-10-09T20:34:31.050Z,13.64
2018-10-09T20:37:38.546Z,13.60
2018-10-09T20:40:46.026Z,13.57
2018-10-09T20:43:51.654Z,13.52
2018-10-09T20:46:57.081Z,13.51
2018-10-09T20:50:02.528Z,13.51
2018-10-09T20:53:08.068Z,13.49
2018-10-09T20:56:13.478Z,13.46
2018-10-09T20:59:18.909Z,13.41
2018-10-09T21:02:24.346Z,13.42
2018-10-09T21:05:31.829Z,13.42
2018-10-09T21:08:39.587Z,13.35
2018-10-09T21:11:45.023Z,13.32
2018-10-09T21:14:50.712Z,13.25
2018-10-09T21:17:56.198Z,13.26
2018-10-09T21:21:01.816Z,13.27
2018-10-09T21:24:07.306Z,13.23
2018-10-09T21:27:13.459Z,13.21
2018-10-09T21:30:18.921Z,13.18
2018-10-09T21:33:24.442Z,13.13
2018-10-09T21:36:29.848Z,13.11
2018-10-09T21:39:35.457Z,13.09
2018-10-09T21:42:41.005Z,13.07
2018-10-09T21:45:46.650Z,13.07
2018-10-09T21:48:52.058Z,13.08
2018-10-09T21:51:57.467Z,13.03
2018-10-09T21:55:02.904Z,12.99
2018-10-09T21:58:08.295Z,12.95
2018-10-09T22:01:13.933Z,12.87
2018-10-09T22:04:19.386Z,12.81
2018-10-09T22:07:24.817Z,12.76
2018-10-09T22:10:30.198Z,12.68
2018-10-09T22:13:35.963Z,12.69
2018-10-09T22:16:41.526Z,12.69
2018-10-09T22:19:47.882Z,12.67
2018-10-09T22:22:54.027Z,12.65
2018-10-09T22:25:59.762Z,12.63
2018-10-09T22:29:05.178Z,12.59
2018-10-09T22:32:10.623Z,12.59
2018-10-09T22:35:16.578Z,12.53
2018-10-09T22:38:22.026Z,12.50
2018-10-09T22:41:27.444Z,12.48
2018-10-09T22:44:32.981Z,12.39
2018-10-09T22:47:38.425Z,12.40
2018-10-09T22:50:43.920Z,12.37
2018-10-09T22:53:49.434Z,12.33
2018-10-09T22:56:55.038Z,12.32
2018-10-09T23:00:00.502Z,12.24
2018-10-09T23:03:05.974Z,12.14
2018-10-09T23:06:11.392Z,12.16
2018-10-09T23:09:16.819Z,12.20
2018-10-09T23:12:22.211Z,12.21
2018-10-09T23:15:27.630Z,12.14
2018-10-09T23:18:33.032Z,12.15
2018-10-09T23:21:38.463Z,12.16
2018-10-09T23:24:44.000Z,12.16
2018-10-09T23:27:49.427Z,12.11
2018-10-09T23:30:54.838Z,12.06
2018-10-09T23:34:00.314Z,12.02
2018-10-09T23:37:06.078Z,12.02
2018-10-09T23:40:11.487Z,12.01
2018-10-09T23:43:16.986Z,11.98
2018-10-09T23:46:22.623Z,11.97
2018-10-09T23:49:28.022Z,11.96
2018-10-09T23:52:34.047Z,11.95
2018-10-09T23:55:39.470Z,11.91
2018-10-09T23:58:44.910Z,11.88
